Aérodrome :
LOGIN :

S'inscrire | Disclaimer

   EN    FR    IT 

 










Légende :    VFR   VFR Marginal   IFR   IFR Intensif   IFR Très Intensif
Visi : 
Plafond : 
>= 8 km
>= 3000ft
5 à 8 km
1000 à 3000 ft
1500m à 5 km
500 à 1000 ft
800 à 1500m
200 à 500 ft
< 800m
< 200 ft
Symboles :   Orages  Brouillard  Fortes neiges  Fortes précipitations  Vent > 20 kt
SIGMETs :   Divers  Orages  Givrage  Turbulence  Onde Orograph.  Cendres Volcan.






- Altitude de l'aérodrome : 288 ft
- Code IATA : BZZ


EGVN - RAF Brize Norton

DERNIER METAR :
  • 091020Z 27006KT CAVOK 08/02 Q1020 NOSIG RMK BLU BLU

METARs EXPIRÉS :
  • 090950Z 25005KT CAVOK 07/02 Q1021 NOSIG
  • 090920Z 26004KT CAVOK 05/02 Q1021 NOSIG RMK BLU BLU
  • 090850Z 25005KT 8000 HZ FEW090 04/01 Q1021 NOSIG RMK BLU BLU
  • 090820Z 25004KT 6000 4500S HZ FEW090 02/01 Q1021 BECMG CAVOK RMK GRN BECMG BLU
  • 090750Z 26002KT 5000 3500S HZ FEW090 01/00 Q1021 BECMG CAVOK RMK YLO1 BECMG BLU

TAF TAF EGVN
Valide du 09 à 09h jusqu'au 10 à 09h UTC


090749Z 0909/1009 26006KT CAVOK
PROB30
TEMPO 0921/1001 SCT018
BECMG 1001/1004 20015G25KT BKN020
TEMPO 1001/1009 4000 RA
BECMG 1004/1007 BKN012
PROB40
TEMPO 1006/1009 3000 RADZ



MET'MAP, la Météo Aéronautique d'un coup d'oeil ! - Copyright ORBIFLY Décembre 2007 - Disclaimer

ORBIFLY MET'MAP TEAM :

Programmation & Développement : Alexandra Zaïnal
Sur une idée originale de : Baudouin d'Aumeries
Assistance à la programmation : Marc-Olivier Méhu
Soutien technique & logistique : Manuel Goepfert

Contact : metmap@orbifly.com




SOURCES & CREDITS :

   NOAA